sensor_id;sensor_type;location;lat;lon;timestamp;pressure;altitude;pressure_sealevel;temperature;humidity
71465;BME280;59274;49.874;9.154;2023-02-28T00:00:20;101454.25;;;-0.93;76.20
71465;BME280;59274;49.874;9.154;2023-02-28T00:02:46;101454.25;;;-0.93;76.91
71465;BME280;59274;49.874;9.154;2023-02-28T00:05:13;101461.16;;;-0.97;77.51
71465;BME280;59274;49.874;9.154;2023-02-28T00:07:40;101453.41;;;-0.98;77.97
71465;BME280;59274;49.874;9.154;2023-02-28T00:10:07;101454.75;;;-0.96;75.82
71465;BME280;59274;49.874;9.154;2023-02-28T00:12:33;101444.91;;;-0.95;77.77
71465;BME280;59274;49.874;9.154;2023-02-28T00:14:59;101456.38;;;-0.95;77.56
71465;BME280;59274;49.874;9.154;2023-02-28T00:17:25;101451.84;;;-0.94;78.69
71465;BME280;59274;49.874;9.154;2023-02-28T00:19:51;101463.28;;;-0.99;78.93
71465;BME280;59274;49.874;9.154;2023-02-28T00:22:18;101455.81;;;-1.02;76.85
71465;BME280;59274;49.874;9.154;2023-02-28T00:24:44;101458.75;;;-1.08;78.90
71465;BME280;59274;49.874;9.154;2023-02-28T00:27:13;101453.97;;;-1.01;78.74
71465;BME280;59274;49.874;9.154;2023-02-28T00:29:39;101452.63;;;-1.04;76.81
71465;BME280;59274;49.874;9.154;2023-02-28T00:32:05;101455.03;;;-1.02;78.78
71465;BME280;59274;49.874;9.154;2023-02-28T00:34:31;101455.28;;;-1.09;78.79
71465;BME280;59274;49.874;9.154;2023-02-28T00:37:05;101459.53;;;-1.13;79.10
71465;BME280;59274;49.874;9.154;2023-02-28T00:39:31;101457.69;;;-1.07;79.38
71465;BME280;59274;49.874;9.154;2023-02-28T00:41:58;101465.69;;;-1.07;79.30
71465;BME280;59274;49.874;9.154;2023-02-28T00:44:23;101464.34;;;-1.15;79.31
71465;BME280;59274;49.874;9.154;2023-02-28T00:46:49;101466.75;;;-1.08;77.24
71465;BME280;59274;49.874;9.154;2023-02-28T00:49:14;101459.28;;;-1.06;78.49
71465;BME280;59274;49.874;9.154;2023-02-28T00:51:39;101461.13;;;-1.12;78.60
71465;BME280;59274;49.874;9.154;2023-02-28T00:54:05;101455.00;;;-1.12;79.36
71465;BME280;59274;49.874;9.154;2023-02-28T00:56:30;101455.53;;;-1.10;77.37
71465;BME280;59274;49.874;9.154;2023-02-28T00:58:56;101461.69;;;-1.15;79.31
71465;BME280;59274;49.874;9.154;2023-02-28T01:01:21;101461.69;;;-1.15;77.39
71465;BME280;59274;49.874;9.154;2023-02-28T01:03:46;101458.22;;;-1.15;77.74
71465;BME280;59274;49.874;9.154;2023-02-28T01:06:12;101468.03;;;-1.26;77.88
71465;BME280;59274;49.874;9.154;2023-02-28T01:08:37;101467.78;;;-1.20;77.80
71465;BME280;59274;49.874;9.154;2023-02-28T01:11:14;101461.94;;;-1.22;79.45
71465;BME280;59274;49.874;9.154;2023-02-28T01:13:41;101463.25;;;-1.24;77.68
71465;BME280;59274;49.874;9.154;2023-02-28T01:16:07;101458.16;;;-1.26;77.50
71465;BME280;59274;49.874;9.154;2023-02-28T01:18:33;101455.22;;;-1.34;78.71
71465;BME280;59274;49.874;9.154;2023-02-28T01:21:05;101454.16;;;-1.38;79.42
71465;BME280;59274;49.874;9.154;2023-02-28T01:23:30;101456.56;;;-1.37;78.83
71465;BME280;59274;49.874;9.154;2023-02-28T01:25:56;101456.56;;;-1.32;79.14
71465;BME280;59274;49.874;9.154;2023-02-28T01:28:21;101451.22;;;-1.37;80.83
71465;BME280;59274;49.874;9.154;2023-02-28T01:30:50;101449.06;;;-1.40;80.89
71465;BME280;59274;49.874;9.154;2023-02-28T01:33:16;101451.19;;;-1.42;81.51
71465;BME280;59274;49.874;9.154;2023-02-28T01:35:41;101447.22;;;-1.39;80.41
71465;BME280;59274;49.874;9.154;2023-02-28T01:38:07;101446.41;;;-1.40;79.26
71465;BME280;59274;49.874;9.154;2023-02-28T01:40:33;101450.69;;;-1.34;79.92
71465;BME280;59274;49.874;9.154;2023-02-28T01:42:58;101442.69;;;-1.44;78.81
71465;BME280;59274;49.874;9.154;2023-02-28T01:45:29;101437.34;;;-1.39;79.79
71465;BME280;59274;49.874;9.154;2023-02-28T01:48:02;101437.34;;;-1.39;80.41
71465;BME280;59274;49.874;9.154;2023-02-28T01:50:32;101438.16;;;-1.38;80.04
71465;BME280;59274;49.874;9.154;2023-02-28T01:53:02;101438.94;;;-1.48;80.51
71465;BME280;59274;49.874;9.154;2023-02-28T01:55:30;101434.41;;;-1.47;81.44
71465;BME280;59274;49.874;9.154;2023-02-28T01:57:58;101436.56;;;-1.39;79.34
71465;BME280;59274;49.874;9.154;2023-02-28T02:00:27;101433.09;;;-1.40;80.94
71465;BME280;59274;49.874;9.154;2023-02-28T02:02:59;101419.50;;;-1.43;79.59
71465;BME280;59274;49.874;9.154;2023-02-28T02:05:28;101422.72;;;-1.36;79.99
71465;BME280;59274;49.874;9.154;2023-02-28T02:07:58;101422.44;;;-1.35;78.65
71465;BME280;59274;49.874;9.154;2023-02-28T02:10:36;101431.78;;;-1.32;77.97
71465;BME280;59274;49.874;9.154;2023-02-28T02:13:29;101418.72;;;-1.34;78.49
71465;BME280;59274;49.874;9.154;2023-02-28T02:22:10;101415.00;;;-1.43;80.20
71465;BME280;59274;49.874;9.154;2023-02-28T02:24:39;101417.63;;;-1.48;80.63
71465;BME280;59274;49.874;9.154;2023-02-28T02:27:38;101404.28;;;-1.48;78.17
71465;BME280;59274;49.874;9.154;2023-02-28T02:30:30;101406.97;;;-1.48;77.79
71465;BME280;59274;49.874;9.154;2023-02-28T02:44:14;101413.34;;;-1.64;79.36
71465;BME280;59274;49.874;9.154;2023-02-28T02:46:47;101410.38;;;-1.63;79.85
71465;BME280;59274;49.874;9.154;2023-02-28T02:49:22;101413.59;;;-1.61;80.75
71465;BME280;59274;49.874;9.154;2023-02-28T02:51:49;101407.19;;;-1.65;79.57
71465;BME280;59274;49.874;9.154;2023-02-28T02:54:26;101409.81;;;-1.75;80.83
71465;BME280;59274;49.874;9.154;2023-02-28T02:56:56;101413.28;;;-1.74;79.31
71465;BME280;59274;49.874;9.154;2023-02-28T02:59:24;101413.84;;;-1.72;80.66
71465;BME280;59274;49.874;9.154;2023-02-28T03:01:57;101408.75;;;-1.79;78.88
71465;BME280;59274;49.874;9.154;2023-02-28T03:04:27;101416.19;;;-1.76;80.14
71465;BME280;59274;49.874;9.154;2023-02-28T03:06:56;101419.91;;;-1.82;79.67
71465;BME280;59274;49.874;9.154;2023-02-28T03:09:22;101411.66;;;-1.80;79.34
71465;BME280;59274;49.874;9.154;2023-02-28T03:11:49;101408.72;;;-1.84;79.22
71465;BME280;59274;49.874;9.154;2023-02-28T03:19:37;101419.34;;;-1.84;79.85
71465;BME280;59274;49.874;9.154;2023-02-28T03:30:03;101418.56;;;-1.84;80.05
71465;BME280;59274;49.874;9.154;2023-02-28T03:32:38;101412.72;;;-1.81;79.84
71465;BME280;59274;49.874;9.154;2023-02-28T03:35:19;101410.28;;;-1.93;80.35
71465;BME280;59274;49.874;9.154;2023-02-28T03:37:49;101408.94;;;-1.90;80.70
71465;BME280;59274;49.874;9.154;2023-02-28T03:40:28;101405.78;;;-1.92;81.24
71465;BME280;59274;49.874;9.154;2023-02-28T03:43:01;101407.34;;;-1.91;81.23
71465;BME280;59274;49.874;9.154;2023-02-28T03:45:30;101409.44;;;-1.99;81.08
71465;BME280;59274;49.874;9.154;2023-02-28T03:48:06;101406.81;;;-1.93;80.77
71465;BME280;59274;49.874;9.154;2023-02-28T03:50:40;101408.66;;;-1.99;81.08
71465;BME280;59274;49.874;9.154;2023-02-28T03:56:19;101417.94;;;-2.07;81.51
71465;BME280;59274;49.874;9.154;2023-02-28T04:01:24;101416.34;;;-2.08;82.25
71465;BME280;59274;49.874;9.154;2023-02-28T04:03:51;101415.56;;;-2.03;81.71
71465;BME280;59274;49.874;9.154;2023-02-28T04:06:20;101408.88;;;-2.11;82.29
71465;BME280;59274;49.874;9.154;2023-02-28T04:08:45;101415.22;;;-2.17;81.86
71465;BME280;59274;49.874;9.154;2023-02-28T04:13:39;101418.97;;;-2.13;82.61
71465;BME280;59274;49.874;9.154;2023-02-28T04:16:08;101421.09;;;-2.15;83.28
71465;BME280;59274;49.874;9.154;2023-02-28T04:18:38;101424.00;;;-2.21;83.25
71465;BME280;59274;49.874;9.154;2023-02-28T04:21:03;101415.72;;;-2.20;82.52
71465;BME280;59274;49.874;9.154;2023-02-28T04:23:30;101427.94;;;-2.24;83.15
71465;BME280;59274;49.874;9.154;2023-02-28T04:25:55;101416.25;;;-2.23;82.60
71465;BME280;59274;49.874;9.154;2023-02-28T04:28:21;101413.06;;;-2.20;83.22
71465;BME280;59274;49.874;9.154;2023-02-28T04:30:46;101422.66;;;-2.19;83.19
71465;BME280;59274;49.874;9.154;2023-02-28T04:33:12;101423.94;;;-2.26;82.59
71465;BME280;59274;49.874;9.154;2023-02-28T04:35:37;101421.03;;;-2.20;82.82
71465;BME280;59274;49.874;9.154;2023-02-28T04:38:02;101421.03;;;-2.25;82.64
71465;BME280;59274;49.874;9.154;2023-02-28T04:40:28;101422.16;;;-2.16;82.33
71465;BME280;59274;49.874;9.154;2023-02-28T04:42:54;101421.25;;;-2.31;82.68
71465;BME280;59274;49.874;9.154;2023-02-28T04:45:19;101422.88;;;-2.25;82.61
71465;BME280;59274;49.874;9.154;2023-02-28T04:47:44;101422.06;;;-2.31;82.68
71465;BME280;59274;49.874;9.154;2023-02-28T04:50:10;101421.00;;;-2.30;82.82
71465;BME280;59274;49.874;9.154;2023-02-28T04:52:35;101418.91;;;-2.23;82.56
71465;BME280;59274;49.874;9.154;2023-02-28T04:55:01;101422.09;;;-2.26;81.90
71465;BME280;59274;49.874;9.154;2023-02-28T04:57:26;101416.50;;;-2.29;82.62
71465;BME280;59274;49.874;9.154;2023-02-28T04:59:52;101422.38;;;-2.27;82.43
71465;BME280;59274;49.874;9.154;2023-02-28T05:02:17;101423.91;;;-2.31;82.28
71465;BME280;59274;49.874;9.154;2023-02-28T05:04:43;101420.19;;;-2.35;82.60
71465;BME280;59274;49.874;9.154;2023-02-28T05:07:08;101428.41;;;-2.37;82.41
71465;BME280;59274;49.874;9.154;2023-02-28T05:09:34;101427.59;;;-2.43;82.88
71465;BME280;59274;49.874;9.154;2023-02-28T05:12:00;101427.28;;;-2.46;82.65
71465;BME280;59274;49.874;9.154;2023-02-28T05:14:25;101431.84;;;-2.42;82.59
71465;BME280;59274;49.874;9.154;2023-02-28T05:16:51;101427.53;;;-2.48;82.93
71465;BME280;59274;49.874;9.154;2023-02-28T05:19:16;101424.13;;;-2.43;82.56
71465;BME280;59274;49.874;9.154;2023-02-28T05:21:50;101425.75;;;-2.37;83.26
71465;BME280;59274;49.874;9.154;2023-02-28T05:24:16;101433.19;;;-2.39;82.15
71465;BME280;59274;49.874;9.154;2023-02-28T05:26:49;101430.25;;;-2.43;82.60
71465;BME280;59274;49.874;9.154;2023-02-28T05:29:15;101435.09;;;-2.34;84.92
71465;BME280;59274;49.874;9.154;2023-02-28T05:31:40;101433.19;;;-2.34;82.46
71465;BME280;59274;49.874;9.154;2023-02-28T05:34:06;101435.84;;;-2.39;82.13
71465;BME280;59274;49.874;9.154;2023-02-28T05:36:31;101437.09;;;-2.47;82.23
71465;BME280;59274;49.874;9.154;2023-02-28T05:38:57;101443.53;;;-2.43;83.68
71465;BME280;59274;49.874;9.154;2023-02-28T05:41:23;101444.88;;;-2.40;83.48
71465;BME280;59274;49.874;9.154;2023-02-28T05:43:48;101441.69;;;-2.42;82.25
71465;BME280;59274;49.874;9.154;2023-02-28T05:46:14;101442.47;;;-2.42;83.52
71465;BME280;59274;49.874;9.154;2023-02-28T05:48:41;101451.22;;;-2.46;83.64
71465;BME280;59274;49.874;9.154;2023-02-28T05:51:07;101459.41;;;-2.53;82.51
71465;BME280;59274;49.874;9.154;2023-02-28T05:53:33;101443.22;;;-2.46;83.64
71465;BME280;59274;49.874;9.154;2023-02-28T05:55:59;101446.69;;;-2.46;81.19
71465;BME280;59274;49.874;9.154;2023-02-28T05:58:25;101452.84;;;-2.40;81.40
71465;BME280;59274;49.874;9.154;2023-02-28T06:00:54;101450.16;;;-2.45;81.09
71465;BME280;59274;49.874;9.154;2023-02-28T06:03:19;101452.34;;;-2.37;81.58
71465;BME280;59274;49.874;9.154;2023-02-28T06:05:45;101456.63;;;-2.36;80.59
71465;BME280;59274;49.874;9.154;2023-02-28T06:08:10;101456.63;;;-2.31;83.06
71465;BME280;59274;49.874;9.154;2023-02-28T06:10:36;101454.28;;;-2.27;80.66
71465;BME280;59274;49.874;9.154;2023-02-28T06:13:03;101458.50;;;-2.31;81.10
71465;BME280;59274;49.874;9.154;2023-02-28T06:15:29;101456.09;;;-2.33;82.24
71465;BME280;59274;49.874;9.154;2023-02-28T06:17:55;101459.78;;;-2.34;80.04
71465;BME280;59274;49.874;9.154;2023-02-28T06:20:24;101463.56;;;-2.30;80.30
71465;BME280;59274;49.874;9.154;2023-02-28T06:22:50;101460.94;;;-2.25;79.11
71465;BME280;59274;49.874;9.154;2023-02-28T06:25:17;101461.53;;;-2.13;78.45
71465;BME280;59274;49.874;9.154;2023-02-28T06:27:43;101464.50;;;-2.09;78.05
71465;BME280;59274;49.874;9.154;2023-02-28T06:30:10;101468.50;;;-2.07;78.46
71465;BME280;59274;49.874;9.154;2023-02-28T06:32:35;101462.63;;;-2.09;78.14
71465;BME280;59274;49.874;9.154;2023-02-28T06:35:01;101465.53;;;-2.10;78.28
71465;BME280;59274;49.874;9.154;2023-02-28T06:37:27;101467.13;;;-2.14;78.85
71465;BME280;59274;49.874;9.154;2023-02-28T06:39:54;101473.75;;;-2.17;79.18
71465;BME280;59274;49.874;9.154;2023-02-28T06:42:24;101467.13;;;-2.14;79.09
71465;BME280;59274;49.874;9.154;2023-02-28T06:44:57;101476.66;;;-2.18;79.74
71465;BME280;59274;49.874;9.154;2023-02-28T06:47:23;101472.44;;;-2.14;79.56
71465;BME280;59274;49.874;9.154;2023-02-28T06:49:49;101479.66;;;-2.10;79.00
71465;BME280;59274;49.874;9.154;2023-02-28T06:52:14;101487.13;;;-2.07;79.62
71465;BME280;59274;49.874;9.154;2023-02-28T06:54:40;101477.56;;;-2.03;79.59
71465;BME280;59274;49.874;9.154;2023-02-28T06:57:06;101484.25;;;-1.95;78.89
71465;BME280;59274;49.874;9.154;2023-02-28T06:59:31;101488.84;;;-1.85;78.42
71465;BME280;59274;49.874;9.154;2023-02-28T07:01:57;101486.47;;;-1.77;77.55
71465;BME280;59274;49.874;9.154;2023-02-28T07:04:23;101489.72;;;-1.70;77.91
71465;BME280;59274;49.874;9.154;2023-02-28T07:06:48;101482.31;;;-1.58;76.02
71465;BME280;59274;49.874;9.154;2023-02-28T07:09:13;101479.44;;;-1.41;77.18
71465;BME280;59274;49.874;9.154;2023-02-28T07:11:39;101484.25;;;-1.38;75.08
71465;BME280;59274;49.874;9.154;2023-02-28T07:14:06;101487.47;;;-1.31;74.98
71465;BME280;59274;49.874;9.154;2023-02-28T07:16:31;101488.84;;;-1.13;76.38
71465;BME280;59274;49.874;9.154;2023-02-28T07:18:57;101489.41;;;-0.91;75.01
71465;BME280;59274;49.874;9.154;2023-02-28T07:21:22;101485.69;;;-0.85;71.85
71465;BME280;59274;49.874;9.154;2023-02-28T07:23:48;101485.47;;;-0.73;74.74
71465;BME280;59274;49.874;9.154;2023-02-28T07:26:15;101485.97;;;-0.61;72.81
71465;BME280;59274;49.874;9.154;2023-02-28T07:28:43;101488.38;;;-0.49;74.31
71465;BME280;59274;49.874;9.154;2023-02-28T07:31:10;101490.25;;;-0.45;73.03
71465;BME280;59274;49.874;9.154;2023-02-28T07:33:35;101485.16;;;-0.26;69.89
71465;BME280;59274;49.874;9.154;2023-02-28T07:36:09;101501.97;;;-0.20;72.12
71465;BME280;59274;49.874;9.154;2023-02-28T07:38:39;101504.63;;;-0.10;72.72
71465;BME280;59274;49.874;9.154;2023-02-28T07:41:04;101503.00;;;-0.06;71.74
71465;BME280;59274;49.874;9.154;2023-02-28T07:43:31;101506.22;;;0.06;69.39
71465;BME280;59274;49.874;9.154;2023-02-28T07:46:01;101499.25;;;0.10;69.39
71465;BME280;59274;49.874;9.154;2023-02-28T07:48:27;101503.53;;;0.11;71.61
71465;BME280;59274;49.874;9.154;2023-02-28T07:50:56;101505.66;;;0.14;68.48
71465;BME280;59274;49.874;9.154;2023-02-28T07:53:21;101503.72;;;0.30;68.03
71465;BME280;59274;49.874;9.154;2023-02-28T07:55:47;101502.41;;;0.32;66.72
71465;BME280;59274;49.874;9.154;2023-02-28T07:58:13;101494.41;;;0.27;67.25
71465;BME280;59274;49.874;9.154;2023-02-28T08:00:38;101503.97;;;0.38;68.87
71465;BME280;59274;49.874;9.154;2023-02-28T08:03:04;101509.03;;;0.45;67.84
71465;BME280;59274;49.874;9.154;2023-02-28T08:05:29;101522.38;;;0.55;68.11
71465;BME280;59274;49.874;9.154;2023-02-28T08:07:56;101513.50;;;0.60;67.36
71465;BME280;59274;49.874;9.154;2023-02-28T08:10:22;101518.28;;;0.68;68.84
71465;BME280;59274;49.874;9.154;2023-02-28T08:12:47;101518.25;;;0.78;67.68
71465;BME280;59274;49.874;9.154;2023-02-28T08:15:12;101519.56;;;0.81;66.69
71465;BME280;59274;49.874;9.154;2023-02-28T08:17:38;101515.78;;;0.92;67.27
71465;BME280;59274;49.874;9.154;2023-02-28T08:20:04;101517.41;;;0.88;64.87
71465;BME280;59274;49.874;9.154;2023-02-28T08:22:30;101499.13;;;1.00;65.55
71465;BME280;59274;49.874;9.154;2023-02-28T08:24:55;101508.72;;;1.11;66.58
71465;BME280;59274;49.874;9.154;2023-02-28T08:27:20;101504.78;;;0.93;63.37
71465;BME280;59274;49.874;9.154;2023-02-28T08:29:46;101508.19;;;1.09;63.11
71465;BME280;59274;49.874;9.154;2023-02-28T08:32:11;101499.06;;;1.10;62.84
71465;BME280;59274;49.874;9.154;2023-02-28T08:34:39;101499.03;;;1.15;64.69
71465;BME280;59274;49.874;9.154;2023-02-28T08:37:05;101505.66;;;1.28;65.16
71465;BME280;59274;49.874;9.154;2023-02-28T08:39:34;101497.81;;;1.36;64.44
71465;BME280;59274;49.874;9.154;2023-02-28T08:41:59;101505.81;;;1.41;64.58
71465;BME280;59274;49.874;9.154;2023-02-28T08:44:25;101499.91;;;1.44;64.54
71465;BME280;59274;49.874;9.154;2023-02-28T08:46:50;101497.00;;;1.41;63.39
71465;BME280;59274;49.874;9.154;2023-02-28T08:49:16;101499.56;;;1.56;61.88
71465;BME280;59274;49.874;9.154;2023-02-28T08:51:41;101501.44;;;1.55;63.24
71465;BME280;59274;49.874;9.154;2023-02-28T08:54:08;101497.81;;;1.70;62.33
71465;BME280;59274;49.874;9.154;2023-02-28T08:56:33;101500.78;;;1.69;60.75
71465;BME280;59274;49.874;9.154;2023-02-28T08:58:59;101505.81;;;1.75;61.88
71465;BME280;59274;49.874;9.154;2023-02-28T09:01:27;101509.97;;;1.86;61.55
71465;BME280;59274;49.874;9.154;2023-02-28T09:03:53;101498.13;;;1.92;61.32
71465;BME280;59274;49.874;9.154;2023-02-28T09:06:21;101492.44;;;1.99;61.68
71465;BME280;59274;49.874;9.154;2023-02-28T09:08:47;101496.16;;;2.03;60.42
71465;BME280;59274;49.874;9.154;2023-02-28T09:11:13;101492.97;;;2.01;60.12
71465;BME280;59274;49.874;9.154;2023-02-28T09:13:39;101490.69;;;2.13;60.67
71465;BME280;59274;49.874;9.154;2023-02-28T09:16:07;101491.38;;;2.24;57.47
71465;BME280;59274;49.874;9.154;2023-02-28T09:18:35;101482.59;;;2.18;60.11
71465;BME280;59274;49.874;9.154;2023-02-28T09:21:08;101486.31;;;2.22;57.30
71465;BME280;59274;49.874;9.154;2023-02-28T09:23:34;101482.25;;;2.25;59.13
71465;BME280;59274;49.874;9.154;2023-02-28T09:26:00;101482.19;;;2.30;56.91
71465;BME280;59274;49.874;9.154;2023-02-28T09:28:25;101480.78;;;2.38;56.11
71465;BME280;59274;49.874;9.154;2023-02-28T09:30:53;101485.78;;;2.44;58.73
71465;BME280;59274;49.874;9.154;2023-02-28T09:33:20;101482.13;;;2.59;58.75
71465;BME280;59274;49.874;9.154;2023-02-28T09:35:47;101481.19;;;2.68;56.30
71465;BME280;59274;49.874;9.154;2023-02-28T09:38:13;101494.09;;;2.66;56.30
71465;BME280;59274;49.874;9.154;2023-02-28T09:40:58;101492.13;;;2.72;55.80
71465;BME280;59274;49.874;9.154;2023-02-28T09:43:28;101483.25;;;2.77;54.60
71465;BME280;59274;49.874;9.154;2023-02-28T09:46:43;101484.03;;;2.77;54.12
71465;BME280;59274;49.874;9.154;2023-02-28T09:48:45;101481.56;;;2.81;53.83
71465;BME280;59274;49.874;9.154;2023-02-28T09:53:52;101499.44;;;2.66;53.95
71465;BME280;59274;49.874;9.154;2023-02-28T09:56:25;101490.03;;;2.88;53.56
71465;BME280;59274;49.874;9.154;2023-02-28T09:59:25;101492.34;;;3.13;54.45
71465;BME280;59274;49.874;9.154;2023-02-28T10:10:29;101499.38;;;3.28;54.08
71465;BME280;59274;49.874;9.154;2023-02-28T10:12:58;101497.31;;;3.25;53.75
71465;BME280;59274;49.874;9.154;2023-02-28T10:15:29;101492.06;;;3.33;52.63
71465;BME280;59274;49.874;9.154;2023-02-28T10:17:59;101490.66;;;3.36;52.50
71465;BME280;59274;49.874;9.154;2023-02-28T10:20:27;101489.72;;;3.45;54.48
71465;BME280;59274;49.874;9.154;2023-02-28T10:23:21;101492.91;;;3.47;54.25
71465;BME280;59274;49.874;9.154;2023-02-28T10:25:55;101493.41;;;3.49;52.32
71465;BME280;59274;49.874;9.154;2023-02-28T10:28:22;101494.59;;;3.43;53.05
71465;BME280;59274;49.874;9.154;2023-02-28T10:30:51;101491.91;;;3.43;52.57
71465;BME280;59274;49.874;9.154;2023-02-28T10:35:53;101489.69;;;3.32;52.16
71465;BME280;59274;49.874;9.154;2023-02-28T10:38:28;101492.59;;;3.49;52.40
71465;BME280;59274;49.874;9.154;2023-02-28T10:43:30;101488.47;;;3.57;52.30
71465;BME280;59274;49.874;9.154;2023-02-28T10:48:44;101483.47;;;3.50;52.28
71465;BME280;59274;49.874;9.154;2023-02-28T10:51:15;101485.53;;;3.21;51.72
71465;BME280;59274;49.874;9.154;2023-02-28T10:53:51;101488.72;;;3.23;54.00
71465;BME280;59274;49.874;9.154;2023-02-28T10:56:20;101486.41;;;3.16;53.66
71465;BME280;59274;49.874;9.154;2023-02-28T10:58:50;101489.81;;;3.22;53.63
71465;BME280;59274;49.874;9.154;2023-02-28T11:03:52;101485.28;;;3.03;52.37
71465;BME280;59274;49.874;9.154;2023-02-28T11:06:24;101481.72;;;3.27;53.23
71465;BME280;59274;49.874;9.154;2023-02-28T11:08:59;101483.56;;;3.45;52.80
71465;BME280;59274;49.874;9.154;2023-02-28T11:11:28;101480.03;;;3.77;52.37
71465;BME280;59274;49.874;9.154;2023-02-28T11:13:57;101481.34;;;3.79;52.10
71465;BME280;59274;49.874;9.154;2023-02-28T11:16:35;101487.44;;;3.85;50.90
71465;BME280;59274;49.874;9.154;2023-02-28T11:19:03;101487.63;;;3.75;50.96
71465;BME280;59274;49.874;9.154;2023-02-28T11:21:34;101478.75;;;3.74;52.97
71465;BME280;59274;49.874;9.154;2023-02-28T11:24:15;101476.19;;;3.69;53.06
71465;BME280;59274;49.874;9.154;2023-02-28T11:26:47;101474.22;;;3.56;52.14
71465;BME280;59274;49.874;9.154;2023-02-28T11:29:21;101469.63;;;3.75;53.11
71465;BME280;59274;49.874;9.154;2023-02-28T11:34:31;101476.38;;;3.73;53.91
71465;BME280;59274;49.874;9.154;2023-02-28T11:36:58;101476.88;;;3.75;52.83
71465;BME280;59274;49.874;9.154;2023-02-28T11:39:25;101478.00;;;4.01;51.98
71465;BME280;59274;49.874;9.154;2023-02-28T12:00:39;101471.75;;;4.47;50.27
71465;BME280;59274;49.874;9.154;2023-02-28T12:07:00;101463.75;;;4.42;49.12
71465;BME280;59274;49.874;9.154;2023-02-28T12:12:23;101456.72;;;5.18;50.05
71465;BME280;59274;49.874;9.154;2023-02-28T12:15:14;101450.91;;;5.46;48.39
71465;BME280;59274;49.874;9.154;2023-02-28T12:17:48;101466.53;;;5.67;46.95
71465;BME280;59274;49.874;9.154;2023-02-28T12:20:39;101453.47;;;6.13;47.55
71465;BME280;59274;49.874;9.154;2023-02-28T12:25:58;101452.91;;;6.42;47.07
71465;BME280;59274;49.874;9.154;2023-02-28T12:28:30;101462.16;;;6.58;48.66
71465;BME280;59274;49.874;9.154;2023-02-28T12:31:08;101464.22;;;6.05;46.01
71465;BME280;59274;49.874;9.154;2023-02-28T12:33:40;101470.59;;;6.09;46.75
71465;BME280;59274;49.874;9.154;2023-02-28T12:36:10;101456.00;;;6.10;47.02
71465;BME280;59274;49.874;9.154;2023-02-28T12:38:47;101462.31;;;5.74;48.20
71465;BME280;59274;49.874;9.154;2023-02-28T12:41:19;101464.44;;;5.33;48.66
71465;BME280;59274;49.874;9.154;2023-02-28T12:43:55;101453.75;;;5.05;48.28
71465;BME280;59274;49.874;9.154;2023-02-28T12:46:32;101448.19;;;5.46;49.79
71465;BME280;59274;49.874;9.154;2023-02-28T12:49:06;101450.19;;;5.63;49.79
71465;BME280;59274;49.874;9.154;2023-02-28T12:51:34;101446.25;;;5.69;48.68
71465;BME280;59274;49.874;9.154;2023-02-28T12:56:48;101435.34;;;6.05;46.32
71465;BME280;59274;49.874;9.154;2023-02-28T12:59:41;101431.09;;;6.13;46.44
71465;BME280;59274;49.874;9.154;2023-02-28T13:08:06;101433.56;;;5.39;47.32
71465;BME280;59274;49.874;9.154;2023-02-28T13:10:42;101425.84;;;5.46;48.67
71465;BME280;59274;49.874;9.154;2023-02-28T13:13:15;101426.38;;;5.57;49.06
71465;BME280;59274;49.874;9.154;2023-02-28T13:16:06;101423.25;;;5.94;45.06
71465;BME280;59274;49.874;9.154;2023-02-28T13:18:42;101432.41;;;5.62;44.48
71465;BME280;59274;49.874;9.154;2023-02-28T13:21:21;101428.63;;;5.10;45.18
71465;BME280;59274;49.874;9.154;2023-02-28T13:34:38;101418.50;;;6.82;43.38
71465;BME280;59274;49.874;9.154;2023-02-28T13:39:50;101414.88;;;6.95;44.94
71465;BME280;59274;49.874;9.154;2023-02-28T13:47:45;101423.56;;;7.18;44.57
71465;BME280;59274;49.874;9.154;2023-02-28T13:52:52;101417.66;;;7.42;43.77
71465;BME280;59274;49.874;9.154;2023-02-28T13:55:37;101408.25;;;7.57;42.62
71465;BME280;59274;49.874;9.154;2023-02-28T14:06:26;101395.78;;;7.73;41.87
71465;BME280;59274;49.874;9.154;2023-02-28T14:11:39;101392.13;;;8.07;41.15
71465;BME280;59274;49.874;9.154;2023-02-28T14:14:07;101393.81;;;8.20;41.46
71465;BME280;59274;49.874;9.154;2023-02-28T14:16:47;101387.53;;;8.37;41.65
71465;BME280;59274;49.874;9.154;2023-02-28T14:19:26;101392.72;;;8.12;40.96
71465;BME280;59274;49.874;9.154;2023-02-28T14:27:41;101383.56;;;7.96;41.38
71465;BME280;59274;49.874;9.154;2023-02-28T14:36:26;101383.81;;;7.82;39.54
71465;BME280;59274;49.874;9.154;2023-02-28T14:38:55;101383.22;;;8.06;41.20
71465;BME280;59274;49.874;9.154;2023-02-28T14:41:24;101382.81;;;8.46;42.34
71465;BME280;59274;49.874;9.154;2023-02-28T14:43:56;101380.78;;;8.43;40.71
71465;BME280;59274;49.874;9.154;2023-02-28T14:46:26;101378.69;;;8.48;40.02
71465;BME280;59274;49.874;9.154;2023-02-28T14:48:54;101383.03;;;8.61;39.70
71465;BME280;59274;49.874;9.154;2023-02-28T14:51:23;101374.72;;;8.87;40.28
71465;BME280;59274;49.874;9.154;2023-02-28T14:53:52;101375.63;;;8.91;39.08
71465;BME280;59274;49.874;9.154;2023-02-28T14:56:24;101370.84;;;9.09;38.31
71465;BME280;59274;49.874;9.154;2023-02-28T14:58:53;101369.03;;;9.13;39.33
71465;BME280;59274;49.874;9.154;2023-02-28T15:01:21;101372.78;;;9.66;39.31
71465;BME280;59274;49.874;9.154;2023-02-28T15:03:47;101371.97;;;9.90;38.26
71465;BME280;59274;49.874;9.154;2023-02-28T15:06:16;101363.38;;;10.12;35.21
71465;BME280;59274;49.874;9.154;2023-02-28T15:08:44;101366.41;;;10.47;37.49
71465;BME280;59274;49.874;9.154;2023-02-28T15:11:15;101356.28;;;10.87;36.36
71465;BME280;59274;49.874;9.154;2023-02-28T15:13:47;101359.38;;;11.29;35.70
71465;BME280;59274;49.874;9.154;2023-02-28T15:16:18;101358.00;;;11.83;33.04
71465;BME280;59274;49.874;9.154;2023-02-28T15:21:17;101358.13;;;12.21;33.64
71465;BME280;59274;49.874;9.154;2023-02-28T15:23:46;101364.63;;;12.71;32.17
71465;BME280;59274;49.874;9.154;2023-02-28T15:26:15;101362.41;;;12.57;31.96
71465;BME280;59274;49.874;9.154;2023-02-28T15:28:43;101352.34;;;12.80;32.56
71465;BME280;59274;49.874;9.154;2023-02-28T15:32:02;101354.78;;;12.47;33.18